createdAt,value
2023-02-02T00:01:30.303Z,3.30
2023-02-02T00:03:57.706Z,3.15
2023-02-02T00:06:26.124Z,3.60
2023-02-02T00:08:53.304Z,2.88
2023-02-02T00:11:20.034Z,3.22
2023-02-02T00:13:46.937Z,3.75
2023-02-02T00:16:28.949Z,3.78
2023-02-02T00:19:00.121Z,3.88
2023-02-02T00:21:27.257Z,3.38
2023-02-02T00:23:53.939Z,3.80
2023-02-02T00:26:20.855Z,3.50
2023-02-02T00:28:48.194Z,3.30
2023-02-02T00:31:14.882Z,3.42
2023-02-02T00:33:45.668Z,3.63
2023-02-02T00:36:12.360Z,2.90
2023-02-02T00:38:38.895Z,3.42
2023-02-02T00:41:05.964Z,3.28
2023-02-02T00:43:32.904Z,3.60
2023-02-02T00:45:59.714Z,5.43
2023-02-02T00:48:26.367Z,3.22
2023-02-02T00:50:53.508Z,3.20
2023-02-02T00:53:20.061Z,2.55
2023-02-02T00:55:47.253Z,2.80
2023-02-02T00:58:13.821Z,3.58
2023-02-02T01:00:40.600Z,3.03
2023-02-02T01:03:08.231Z,2.50
2023-02-02T01:05:35.025Z,2.47
2023-02-02T01:08:01.698Z,2.67
2023-02-02T01:10:28.476Z,2.35
2023-02-02T01:12:55.091Z,2.63
2023-02-02T01:15:21.851Z,2.60
2023-02-02T01:17:49.208Z,2.50
2023-02-02T01:20:18.944Z,2.40
2023-02-02T01:22:46.655Z,2.00
2023-02-02T01:25:13.640Z,2.13
2023-02-02T01:27:40.269Z,2.60
2023-02-02T01:30:07.558Z,2.42
2023-02-02T01:32:34.190Z,1.98
2023-02-02T01:35:00.841Z,2.80
2023-02-02T01:37:27.398Z,2.67
2023-02-02T01:39:54.009Z,2.08
2023-02-02T01:42:22.607Z,2.13
2023-02-02T01:45:25.490Z,3.88
2023-02-02T01:47:57.661Z,2.95
2023-02-02T01:50:29.792Z,3.58
2023-02-02T01:52:58.722Z,2.10
2023-02-02T01:55:28.502Z,2.42
2023-02-02T01:57:59.490Z,2.90
2023-02-02T02:00:27.791Z,2.90
2023-02-02T02:02:58.784Z,2.60
2023-02-02T02:05:36.333Z,2.25
2023-02-02T02:08:10.536Z,4.15
2023-02-02T02:10:37.380Z,2.97
2023-02-02T02:13:04.711Z,2.55
2023-02-02T02:16:04.987Z,2.45
2023-02-02T02:18:45.121Z,2.95
2023-02-02T02:21:44.296Z,2.83
2023-02-02T02:25:16.388Z,2.40
2023-02-02T02:28:10.453Z,3.38
2023-02-02T02:30:49.230Z,1.92
2023-02-02T02:36:22.184Z,1.83
2023-02-02T02:39:21.507Z,2.40
2023-02-02T02:41:57.851Z,2.80
2023-02-02T02:44:26.636Z,2.67
2023-02-02T02:46:55.115Z,2.30
2023-02-02T02:49:21.830Z,2.65
2023-02-02T02:51:50.988Z,2.65
2023-02-02T02:54:30.945Z,2.75
2023-02-02T02:57:26.868Z,2.70
2023-02-02T03:00:34.828Z,2.20
2023-02-02T03:03:37.147Z,2.13
2023-02-02T03:06:21.727Z,3.17
2023-02-02T03:08:55.154Z,1.92
2023-02-02T03:11:22.175Z,2.60
2023-02-02T03:13:49.135Z,3.17
2023-02-02T03:16:16.790Z,2.95
2023-02-02T03:18:44.153Z,2.88
2023-02-02T03:21:11.250Z,3.40
2023-02-02T03:23:38.714Z,3.10
2023-02-02T03:26:06.332Z,3.17
2023-02-02T03:28:33.148Z,3.20
2023-02-02T03:31:01.534Z,3.55
2023-02-02T03:33:28.549Z,4.00
2023-02-02T03:35:55.164Z,3.08
2023-02-02T03:38:21.698Z,3.25
2023-02-02T03:40:48.297Z,3.30
2023-02-02T03:43:20.447Z,3.60
2023-02-02T03:45:47.026Z,3.72
2023-02-02T03:48:13.627Z,3.70
2023-02-02T03:50:40.218Z,5.05
2023-02-02T03:53:06.781Z,3.45
2023-02-02T03:55:33.407Z,4.20
2023-02-02T03:58:00.003Z,3.88
2023-02-02T04:00:26.734Z,3.88
2023-02-02T04:02:53.858Z,4.65
2023-02-02T04:05:20.454Z,4.13
2023-02-02T04:07:49.084Z,4.07
2023-02-02T04:10:16.114Z,4.20
2023-02-02T04:12:42.742Z,4.90
2023-02-02T04:15:09.650Z,4.38
2023-02-02T04:17:36.504Z,3.63
2023-02-02T04:20:06.633Z,3.65
2023-02-02T04:22:33.845Z,3.65
2023-02-02T04:25:00.387Z,3.47
2023-02-02T04:27:27.019Z,4.05
2023-02-02T04:29:53.585Z,4.78
2023-02-02T04:32:20.186Z,4.22
2023-02-02T04:34:46.824Z,4.43
2023-02-02T04:37:13.481Z,3.28
2023-02-02T04:39:40.163Z,5.40
2023-02-02T04:42:06.774Z,5.53
2023-02-02T04:44:33.674Z,5.43
2023-02-02T04:47:00.318Z,5.50
2023-02-02T04:49:27.065Z,4.65
2023-02-02T04:51:53.619Z,5.03
2023-02-02T04:54:20.213Z,4.43
2023-02-02T04:56:47.004Z,4.53
2023-02-02T04:59:13.555Z,4.28
2023-02-02T05:01:40.108Z,5.25
2023-02-02T05:04:06.718Z,4.28
2023-02-02T05:06:33.312Z,3.80
2023-02-02T05:09:01.109Z,4.03
2023-02-02T05:11:27.780Z,4.78
2023-02-02T05:13:55.411Z,3.65
2023-02-02T05:16:23.615Z,3.28
2023-02-02T05:18:55.203Z,3.63
2023-02-02T05:21:22.473Z,3.95
2023-02-02T05:23:49.199Z,3.58
2023-02-02T05:26:24.769Z,3.95
2023-02-02T05:28:51.873Z,3.53
2023-02-02T05:31:19.822Z,2.70
2023-02-02T05:33:46.482Z,3.38
2023-02-02T05:36:13.358Z,3.15
2023-02-02T05:38:39.964Z,3.58
2023-02-02T05:41:06.680Z,3.10
2023-02-02T05:43:33.784Z,3.45
2023-02-02T05:46:00.917Z,3.50
2023-02-02T05:48:28.348Z,3.38
2023-02-02T05:51:11.308Z,4.07
2023-02-02T05:53:38.110Z,4.22
2023-02-02T05:56:05.009Z,4.00
2023-02-02T05:58:31.646Z,4.68
2023-02-02T06:00:58.189Z,3.13
2023-02-02T06:03:24.931Z,3.53
2023-02-02T06:05:51.625Z,2.80
2023-02-02T06:08:18.234Z,2.30
2023-02-02T06:10:44.999Z,2.00
2023-02-02T06:13:11.841Z,2.33
2023-02-02T06:15:38.627Z,2.00
2023-02-02T06:18:08.356Z,2.00
2023-02-02T06:20:35.790Z,1.73
2023-02-02T06:23:02.483Z,2.33
2023-02-02T06:25:29.132Z,2.70
2023-02-02T06:27:59.629Z,2.42
2023-02-02T06:30:27.573Z,1.83
2023-02-02T06:32:55.362Z,1.75
2023-02-02T06:35:22.280Z,2.22
2023-02-02T06:37:49.181Z,2.30
2023-02-02T06:40:16.293Z,2.70
2023-02-02T06:42:42.917Z,2.55
2023-02-02T06:45:10.182Z,2.33
2023-02-02T06:47:36.817Z,1.70
2023-02-02T06:50:04.159Z,2.38
2023-02-02T06:52:30.875Z,5.30
2023-02-02T06:54:57.442Z,2.60
2023-02-02T06:57:24.111Z,2.65
2023-02-02T06:59:51.159Z,1.60
2023-02-02T07:02:17.850Z,2.03
2023-02-02T07:04:44.479Z,1.85
2023-02-02T07:07:11.045Z,2.67
2023-02-02T07:09:37.872Z,2.35
2023-02-02T07:12:04.484Z,3.92
2023-02-02T07:14:31.083Z,2.38
2023-02-02T07:16:57.722Z,2.90
2023-02-02T07:19:24.343Z,1.98
2023-02-02T07:21:50.984Z,1.95
2023-02-02T07:24:17.735Z,2.00
2023-02-02T07:26:44.326Z,1.83
2023-02-02T07:29:14.330Z,2.10
2023-02-02T07:31:41.561Z,2.17
2023-02-02T07:34:08.344Z,2.47
2023-02-02T07:36:35.610Z,2.55
2023-02-02T07:39:04.684Z,1.67
2023-02-02T07:41:32.197Z,2.40
2023-02-02T07:43:58.808Z,2.20
2023-02-02T07:46:25.387Z,2.10
2023-02-02T07:48:55.613Z,1.90
2023-02-02T07:51:22.696Z,1.75
2023-02-02T07:53:52.205Z,2.33
2023-02-02T07:56:21.516Z,1.90
2023-02-02T07:58:48.626Z,1.50
2023-02-02T08:01:16.258Z,1.50
2023-02-02T08:03:43.546Z,2.20
2023-02-02T08:06:28.705Z,2.42
2023-02-02T08:08:55.939Z,2.30
2023-02-02T08:11:32.545Z,2.38
2023-02-02T08:14:02.220Z,1.88
2023-02-02T08:16:31.250Z,1.60
2023-02-02T08:18:58.599Z,1.60
2023-02-02T08:21:25.443Z,2.42
2023-02-02T08:23:53.947Z,1.30
2023-02-02T08:26:28.097Z,1.55
2023-02-02T08:28:59.672Z,1.90
2023-02-02T08:31:35.483Z,1.67
2023-02-02T08:34:03.809Z,1.50
2023-02-02T08:36:31.109Z,2.17
2023-02-02T08:39:10.044Z,1.35
2023-02-02T08:41:39.581Z,1.70
2023-02-02T08:44:09.416Z,1.70
2023-02-02T08:46:37.981Z,1.70
2023-02-02T08:49:04.686Z,3.05
2023-02-02T08:51:31.288Z,2.05
2023-02-02T08:53:57.891Z,1.80
2023-02-02T08:56:24.575Z,1.80
2023-02-02T08:58:56.454Z,1.80
2023-02-02T09:01:26.184Z,1.98
2023-02-02T09:04:16.114Z,1.88
2023-02-02T09:06:43.672Z,1.77
2023-02-02T09:09:15.866Z,2.28
2023-02-02T09:11:43.272Z,2.63
2023-02-02T09:14:14.477Z,2.50
2023-02-02T09:16:41.807Z,2.15
2023-02-02T09:19:09.947Z,2.28
2023-02-02T09:21:37.298Z,2.85
2023-02-02T09:24:10.236Z,1.83
2023-02-02T09:26:38.605Z,2.63
2023-02-02T09:29:07.042Z,1.90
2023-02-02T09:31:35.619Z,3.20
2023-02-02T09:34:05.218Z,3.22
2023-02-02T09:38:59.153Z,3.00
2023-02-02T09:41:38.079Z,2.75
2023-02-02T09:44:23.686Z,2.80
2023-02-02T09:47:24.470Z,3.70
2023-02-02T09:49:56.992Z,2.90
2023-02-02T09:52:26.034Z,2.88
2023-02-02T09:54:59.552Z,2.60
2023-02-02T09:57:31.993Z,2.97
2023-02-02T09:59:59.182Z,3.53
2023-02-02T10:02:40.004Z,3.95
2023-02-02T10:05:34.601Z,3.28
2023-02-02T10:08:05.960Z,4.40
2023-02-02T10:10:39.277Z,3.25
2023-02-02T10:13:13.818Z,3.25
2023-02-02T10:16:01.556Z,3.47
2023-02-02T10:18:42.568Z,3.17
2023-02-02T10:21:35.562Z,5.10
2023-02-02T10:24:03.678Z,3.60
2023-02-02T10:26:46.228Z,3.63
2023-02-02T10:29:22.102Z,3.05
2023-02-02T10:32:03.940Z,4.35
2023-02-02T10:35:11.073Z,3.05
2023-02-02T10:37:54.151Z,1.98
2023-02-02T10:40:45.202Z,2.28
2023-02-02T10:43:45.960Z,2.38
2023-02-02T10:46:31.653Z,2.22
2023-02-02T10:49:33.207Z,2.38
2023-02-02T10:52:11.059Z,3.25
2023-02-02T10:54:58.200Z,2.92
2023-02-02T10:57:52.895Z,3.20
2023-02-02T11:00:23.145Z,3.03
2023-02-02T11:02:51.491Z,2.97
2023-02-02T11:05:42.244Z,2.53
2023-02-02T11:08:37.604Z,2.72
2023-02-02T11:11:35.202Z,2.83
2023-02-02T11:14:11.325Z,2.97
2023-02-02T11:16:44.377Z,3.10
2023-02-02T11:19:17.365Z,3.10
2023-02-02T11:21:48.954Z,3.40
2023-02-02T11:24:19.317Z,3.58
2023-02-02T11:26:49.334Z,3.83
2023-02-02T11:29:28.092Z,4.30
2023-02-02T11:31:54.757Z,4.93
2023-02-02T11:34:28.419Z,4.05
2023-02-02T11:37:04.161Z,4.65
2023-02-02T11:39:30.893Z,3.78
2023-02-02T11:42:04.122Z,3.80
2023-02-02T11:44:32.568Z,3.47
2023-02-02T11:47:00.640Z,4.35
2023-02-02T11:49:28.469Z,4.30
2023-02-02T11:52:04.987Z,4.50
2023-02-02T11:54:37.950Z,4.45
2023-02-02T11:57:08.984Z,4.20
2023-02-02T11:59:43.502Z,3.63
2023-02-02T12:02:13.517Z,4.72
2023-02-02T12:04:40.856Z,3.92
2023-02-02T12:07:22.565Z,3.88
2023-02-02T12:09:50.360Z,4.15
2023-02-02T12:12:38.622Z,4.18
2023-02-02T12:15:34.519Z,4.03
2023-02-02T12:18:30.483Z,3.40
2023-02-02T12:21:04.809Z,3.45
2023-02-02T12:24:05.562Z,3.40
2023-02-02T12:26:37.128Z,3.90
2023-02-02T12:29:25.312Z,3.22
2023-02-02T12:32:18.834Z,4.28
2023-02-02T12:35:21.653Z,4.43
2023-02-02T12:37:51.010Z,4.60
2023-02-02T12:40:31.406Z,4.70
2023-02-02T12:43:17.108Z,3.35
2023-02-02T12:46:12.343Z,5.13
2023-02-02T12:49:07.170Z,4.43
2023-02-02T12:52:06.021Z,5.18
2023-02-02T12:54:49.629Z,4.78
2023-02-02T12:57:46.696Z,4.53
2023-02-02T13:00:26.314Z,5.15
2023-02-02T13:03:13.036Z,6.00
2023-02-02T13:05:39.785Z,6.93
2023-02-02T13:08:14.840Z,5.50
2023-02-02T13:10:55.480Z,4.80
2023-02-02T13:13:32.782Z,3.97
2023-02-02T13:16:06.426Z,3.95
2023-02-02T13:18:41.118Z,4.10
2023-02-02T13:21:15.360Z,4.03
2023-02-02T13:23:51.612Z,3.95
2023-02-02T13:26:21.195Z,4.75
2023-02-02T13:34:07.111Z,3.42
2023-02-02T13:36:37.521Z,3.17
2023-02-02T13:39:16.237Z,3.60
2023-02-02T13:41:43.931Z,3.70
2023-02-02T13:44:38.404Z,3.45
2023-02-02T13:47:11.736Z,3.67
2023-02-02T13:49:43.651Z,3.80
2023-02-02T13:52:41.484Z,2.90
2023-02-02T13:55:47.160Z,3.08
2023-02-02T13:58:20.658Z,3.40
2023-02-02T14:00:54.188Z,3.53
2023-02-02T14:03:38.234Z,3.58
2023-02-02T14:06:12.388Z,3.55
2023-02-02T14:08:46.743Z,3.47
2023-02-02T14:11:33.638Z,4.10
2023-02-02T14:14:33.486Z,3.70
2023-02-02T14:17:23.062Z,3.83
2023-02-02T14:22:37.666Z,4.13
2023-02-02T14:25:29.994Z,4.15
2023-02-02T14:28:03.285Z,4.32
2023-02-02T14:30:38.627Z,5.57
2023-02-02T14:33:20.602Z,4.32
2023-02-02T14:35:47.307Z,4.03
2023-02-02T14:38:23.029Z,4.75
2023-02-02T14:40:55.714Z,4.95
2023-02-02T14:43:45.043Z,4.63
2023-02-02T14:46:14.792Z,4.00
2023-02-02T14:48:49.754Z,4.07
2023-02-02T14:51:18.881Z,4.78
2023-02-02T14:53:55.299Z,5.05
2023-02-02T14:56:38.407Z,5.18
2023-02-02T14:59:07.352Z,4.70
2023-02-02T15:01:37.931Z,4.70
2023-02-02T15:04:20.105Z,5.63
2023-02-02T15:06:48.544Z,6.05
2023-02-02T15:09:41.146Z,6.60
2023-02-02T15:12:10.819Z,6.03
2023-02-02T15:17:21.869Z,6.50
2023-02-02T15:19:54.290Z,6.00
2023-02-02T15:22:30.239Z,5.88
2023-02-02T15:25:00.587Z,5.57
2023-02-02T15:27:27.977Z,6.30
2023-02-02T15:30:02.378Z,7.03
2023-02-02T15:32:30.585Z,7.32
2023-02-02T15:35:15.025Z,9.05
2023-02-02T15:37:46.783Z,8.82
2023-02-02T15:40:16.703Z,7.90
2023-02-02T15:42:53.049Z,9.40
2023-02-02T15:45:29.069Z,8.55
2023-02-02T15:47:58.029Z,8.32
2023-02-02T15:50:25.737Z,7.70
2023-02-02T15:52:55.468Z,8.75
2023-02-02T15:55:35.067Z,8.75
2023-02-02T15:58:32.469Z,7.43
2023-02-02T16:01:03.219Z,8.05
2023-02-02T16:03:37.705Z,7.88
2023-02-02T16:06:07.297Z,7.82
2023-02-02T16:11:19.988Z,6.88
2023-02-02T16:13:59.019Z,7.47
2023-02-02T16:16:32.131Z,7.57
2023-02-02T16:19:16.552Z,10.52
2023-02-02T16:22:04.417Z,9.88
2023-02-02T16:24:34.565Z,7.60
2023-02-02T16:27:06.781Z,9.45
2023-02-02T16:29:39.260Z,7.78
2023-02-02T16:32:06.916Z,8.75
2023-02-02T16:34:50.180Z,8.10
2023-02-02T16:37:33.867Z,8.38
2023-02-02T16:40:29.671Z,11.20
2023-02-02T16:43:07.941Z,11.73
2023-02-02T16:45:40.019Z,11.23
2023-02-02T16:48:35.585Z,10.32
2023-02-02T16:51:17.909Z,11.82
2023-02-02T16:53:48.810Z,11.10
2023-02-02T16:56:43.549Z,11.73
2023-02-02T16:59:24.862Z,12.05
2023-02-02T17:01:55.985Z,12.85
2023-02-02T17:04:28.906Z,13.07
2023-02-02T17:07:04.822Z,15.07
2023-02-02T17:09:41.067Z,13.90
2023-02-02T17:12:32.118Z,14.02
2023-02-02T17:15:06.168Z,15.05
2023-02-02T17:17:33.158Z,15.20
2023-02-02T17:20:00.219Z,14.23
2023-02-02T17:22:29.889Z,15.02
2023-02-02T17:27:27.101Z,15.00
2023-02-02T17:29:54.407Z,13.85
2023-02-02T17:32:21.448Z,14.38
2023-02-02T17:34:48.326Z,13.75
2023-02-02T17:37:15.616Z,14.65
2023-02-02T17:39:42.527Z,15.27
2023-02-02T17:42:27.312Z,14.45
2023-02-02T17:44:54.186Z,14.55
2023-02-02T17:47:21.105Z,15.35
2023-02-02T17:49:48.000Z,17.02
2023-02-02T17:52:15.004Z,16.67
2023-02-02T17:54:42.056Z,16.70
2023-02-02T17:57:08.825Z,17.30
2023-02-02T17:59:35.676Z,18.35
2023-02-02T18:02:02.546Z,19.05
2023-02-02T18:04:29.474Z,19.90
2023-02-02T18:06:56.319Z,19.73
2023-02-02T18:09:23.348Z,21.83
2023-02-02T18:11:50.292Z,22.60
2023-02-02T18:14:17.188Z,21.92
2023-02-02T18:16:44.024Z,23.17
2023-02-02T18:19:10.868Z,25.23
2023-02-02T18:21:37.843Z,25.30
2023-02-02T18:24:08.284Z,24.88
2023-02-02T18:26:35.737Z,24.85
2023-02-02T18:29:02.845Z,26.15
2023-02-02T18:31:29.974Z,27.42
2023-02-02T18:33:56.831Z,26.17
2023-02-02T18:36:23.918Z,26.45
2023-02-02T18:38:51.631Z,27.83
2023-02-02T18:41:21.581Z,37.88
2023-02-02T18:43:48.547Z,35.33
2023-02-02T18:46:17.270Z,32.22
2023-02-02T18:48:44.995Z,29.20
2023-02-02T18:51:18.064Z,28.00
2023-02-02T18:53:46.374Z,29.88
2023-02-02T18:56:14.709Z,29.52
2023-02-02T18:58:42.034Z,28.08
2023-02-02T19:01:10.763Z,28.08
2023-02-02T19:03:37.812Z,23.77
2023-02-02T19:06:24.395Z,28.58
2023-02-02T19:08:51.406Z,28.25
2023-02-02T19:11:21.736Z,27.35
2023-02-02T19:13:49.088Z,26.52
2023-02-02T19:16:29.037Z,28.00
2023-02-02T19:18:58.111Z,26.58
2023-02-02T19:21:29.692Z,25.90
2023-02-02T19:23:57.002Z,25.70
2023-02-02T19:26:26.516Z,25.10
2023-02-02T19:28:59.570Z,23.95
2023-02-02T19:31:26.564Z,22.63
2023-02-02T19:33:53.745Z,22.02
2023-02-02T19:36:27.649Z,21.63
2023-02-02T19:39:17.079Z,21.77
2023-02-02T19:41:44.307Z,21.10
2023-02-02T19:44:18.643Z,19.98
2023-02-02T19:46:49.582Z,19.48
2023-02-02T19:49:33.047Z,22.48
2023-02-02T19:52:06.261Z,25.10
2023-02-02T19:54:38.277Z,26.98
2023-02-02T19:57:33.169Z,21.45
2023-02-02T20:00:11.235Z,18.95
2023-02-02T20:03:00.826Z,20.33
2023-02-02T20:05:32.551Z,20.52
2023-02-02T20:08:06.980Z,20.92
2023-02-02T20:10:46.021Z,20.40
2023-02-02T20:13:20.187Z,19.42
2023-02-02T20:15:47.830Z,21.02
2023-02-02T20:18:19.220Z,19.67
2023-02-02T20:20:53.159Z,21.33
2023-02-02T20:23:25.952Z,20.17
2023-02-02T20:25:52.686Z,21.85
2023-02-02T20:28:33.957Z,23.67
2023-02-02T20:31:05.676Z,23.63
2023-02-02T20:33:33.316Z,23.90
2023-02-02T20:36:02.512Z,25.73
2023-02-02T20:38:38.125Z,26.45
2023-02-02T20:41:05.812Z,25.75
2023-02-02T20:43:35.662Z,26.90
2023-02-02T20:46:02.563Z,28.15
2023-02-02T20:48:29.218Z,27.33
2023-02-02T20:50:55.803Z,28.40
2023-02-02T20:53:22.640Z,28.73
2023-02-02T20:55:49.229Z,29.90
2023-02-02T20:58:15.781Z,29.88
2023-02-02T21:00:42.520Z,31.50
2023-02-02T21:03:09.219Z,30.65
2023-02-02T21:05:35.865Z,31.17
2023-02-02T21:08:02.749Z,32.47
2023-02-02T21:10:29.457Z,32.70
2023-02-02T21:12:56.271Z,32.38
2023-02-02T21:15:23.489Z,32.83
2023-02-02T21:17:50.091Z,36.17
2023-02-02T21:20:16.955Z,33.92
2023-02-02T21:22:43.779Z,36.40
2023-02-02T21:25:12.021Z,36.47
2023-02-02T21:27:41.248Z,34.92
2023-02-02T21:30:12.342Z,35.92
2023-02-02T21:32:39.141Z,36.25
2023-02-02T21:35:06.597Z,37.30
2023-02-02T21:37:36.670Z,37.00
2023-02-02T21:40:14.166Z,36.47
2023-02-02T21:42:47.320Z,35.55
2023-02-02T21:45:22.804Z,36.00
2023-02-02T21:47:53.755Z,37.40
2023-02-02T21:50:28.929Z,37.72
2023-02-02T21:53:14.280Z,36.40
2023-02-02T21:55:41.807Z,36.58
2023-02-02T21:58:32.253Z,37.42
2023-02-02T22:01:14.569Z,36.08
2023-02-02T22:03:46.480Z,37.20
2023-02-02T22:06:22.251Z,35.20
2023-02-02T22:08:50.594Z,36.17
2023-02-02T22:11:37.580Z,38.35
2023-02-02T22:14:21.601Z,37.50
2023-02-02T22:16:53.562Z,34.60
2023-02-02T22:19:28.229Z,34.58
2023-02-02T22:22:12.182Z,34.92
2023-02-02T22:24:38.962Z,34.25
2023-02-02T22:27:18.353Z,33.65
2023-02-02T22:29:45.317Z,33.85
2023-02-02T22:32:11.889Z,33.70
2023-02-02T22:34:38.513Z,34.17
2023-02-02T22:37:05.077Z,32.13
2023-02-02T22:39:31.647Z,33.85
2023-02-02T22:41:58.156Z,33.05
2023-02-02T22:44:24.770Z,32.72
2023-02-02T22:46:51.309Z,32.65
2023-02-02T22:49:17.880Z,31.75
2023-02-02T22:51:44.414Z,31.30
2023-02-02T22:54:11.020Z,30.63
2023-02-02T22:56:37.651Z,30.23
2023-02-02T22:59:04.421Z,29.50
2023-02-02T23:01:31.057Z,31.27
2023-02-02T23:07:13.077Z,29.98
2023-02-02T23:09:39.639Z,26.83
2023-02-02T23:12:06.539Z,29.27
2023-02-02T23:14:33.181Z,27.85
2023-02-02T23:16:59.779Z,27.48
2023-02-02T23:19:26.417Z,28.77
2023-02-02T23:21:53.037Z,26.10
2023-02-02T23:24:19.744Z,25.05
2023-02-02T23:26:46.476Z,24.77
2023-02-02T23:29:13.159Z,24.08
2023-02-02T23:31:39.743Z,24.85
2023-02-02T23:34:06.363Z,24.50
2023-02-02T23:36:32.987Z,24.52
2023-02-02T23:38:59.542Z,22.90
2023-02-02T23:41:26.312Z,23.40
2023-02-02T23:43:53.204Z,24.17
2023-02-02T23:46:20.193Z,23.98
2023-02-02T23:48:47.207Z,24.50
2023-02-02T23:51:14.362Z,25.45
2023-02-02T23:53:42.588Z,26.50
2023-02-02T23:56:09.786Z,26.77
2023-02-02T23:58:36.511Z,27.98
